Time;durP1;ratioP1;P1;durP2;ratioP2;P2;SDS_P1;SDS_P2;PMS_P1;PMS_P2;Temp;Humidity;BMP_temperature;BMP_pressure;BME280_temperature;BME280_humidity;BME280_pressure;Samples;Min_cycle;Max_cycle;Signal;HPM_P1;HPM_P2
2023/12/07 00:02:22;;;;;;;37.17;24.10;;;;;;;6.21;100.00;92629.31;5053346;28;20572;-76
2023/12/07 00:04:50;;;;;;;40.17;26.65;;;;;;;6.13;100.00;92622.66;5061565;28;20145;-76
2023/12/07 00:07:17;;;;;;;40.67;26.10;;;;;;;6.12;100.00;92633.84;5055577;28;20051;-76
2023/12/07 00:09:44;;;;;;;41.45;26.92;;;;;;;5.99;100.00;92622.63;5062651;28;20055;-76
2023/12/07 00:12:11;;;;;;;40.65;27.83;;;;;;;6.04;100.00;92637.38;5053838;28;20426;-76
2023/12/07 00:14:38;;;;;;;39.83;25.63;;;;;;;6.03;100.00;92642.66;5057090;28;20049;-76
2023/12/07 00:17:05;;;;;;;46.92;31.20;;;;;;;6.08;100.00;92645.41;5048957;28;20939;-76
2023/12/07 00:19:32;;;;;;;46.50;31.77;;;;;;;5.79;100.00;92640.44;5052126;28;20040;-76
2023/12/07 00:22:00;;;;;;;45.40;31.33;;;;;;;5.85;100.00;92647.34;5047801;28;20049;-76
2023/12/07 00:24:27;;;;;;;41.03;28.85;;;;;;;5.85;100.00;92644.00;5056417;28;20510;-77
2023/12/07 00:26:54;;;;;;;40.88;27.42;;;;;;;5.83;100.00;92640.84;5047824;28;20052;-77
2023/12/07 00:29:20;;;;;;;49.33;31.38;;;;;;;5.86;100.00;92643.81;5060174;28;20052;-77
2023/12/07 00:31:47;;;;;;;42.28;27.83;;;;;;;5.79;100.00;92626.94;5060369;28;20056;-76
2023/12/07 00:34:14;;;;;;;40.00;27.75;;;;;;;5.91;100.00;92642.41;5049597;28;20501;-78
2023/12/07 00:36:41;;;;;;;41.38;28.35;;;;;;;5.95;100.00;92643.59;5063815;28;20052;-78
2023/12/07 00:39:10;;;;;;;44.47;30.33;;;;;;;5.96;100.00;92645.16;5053975;28;20057;-78
2023/12/07 00:41:37;;;;;;;44.25;28.95;;;;;;;5.94;100.00;92647.13;5059321;28;20474;-78
2023/12/07 00:44:03;;;;;;;44.60;29.20;;;;;;;5.99;100.00;92652.44;5052638;28;20067;-80
2023/12/07 00:46:32;;;;;;;44.17;29.15;;;;;;;5.87;100.00;92624.19;5056132;28;20067;-80
2023/12/07 00:48:59;;;;;;;41.83;28.88;;;;;;;6.03;100.00;92651.09;5047997;28;20410;-80
2023/12/07 00:51:26;;;;;;;42.72;28.23;;;;;;;6.00;100.00;92643.81;5047652;28;20056;-79
2023/12/07 00:53:53;;;;;;;41.28;28.27;;;;;;;5.91;100.00;92624.56;5050014;28;20048;-80
2023/12/07 00:56:21;;;;;;;43.38;30.30;;;;;;;6.05;100.00;92635.59;5052517;28;20498;-80
2023/12/07 00:58:48;;;;;;;40.35;27.70;;;;;;;6.07;100.00;92634.41;5055766;28;20041;-80
2023/12/07 01:01:15;;;;;;;43.65;31.02;;;;;;;6.06;100.00;92627.75;5058271;28;20051;-81
2023/12/07 01:03:42;;;;;;;46.08;30.90;;;;;;;6.13;100.00;92635.41;5049292;28;20157;-80
2023/12/07 01:06:09;;;;;;;41.78;27.63;;;;;;;6.14;100.00;92629.31;5048740;28;20051;-80
2023/12/07 01:08:37;;;;;;;39.60;27.45;;;;;;;6.13;100.00;92636.22;5047188;28;20049;-80
2023/12/07 01:11:04;;;;;;;45.50;29.80;;;;;;;6.12;100.00;92642.25;5052779;28;20052;-80
2023/12/07 01:13:32;;;;;;;53.08;33.90;;;;;;;6.10;100.00;92630.69;5056046;28;20133;-80
2023/12/07 01:15:59;;;;;;;46.53;31.90;;;;;;;6.10;100.00;92638.34;5061964;28;20748;-80
2023/12/07 01:18:26;;;;;;;48.58;30.20;;;;;;;6.09;100.00;92635.03;5049060;28;20132;-79
2023/12/07 01:20:53;;;;;;;39.42;28.38;;;;;;;6.07;100.00;92638.75;5047358;28;20143;-79
2023/12/07 01:23:20;;;;;;;42.35;29.45;;;;;;;5.89;100.00;92623.00;5047616;28;20075;-79
2023/12/07 01:25:47;;;;;;;39.42;27.17;;;;;;;5.73;100.00;92601.25;5050391;28;20574;-82
2023/12/07 01:28:14;;;;;;;44.42;29.73;;;;;;;5.97;100.00;92636.56;5046960;28;20053;-81
2023/12/07 01:30:42;;;;;;;39.65;27.67;;;;;;;5.85;100.00;92626.16;5049130;28;20045;-81
2023/12/07 01:33:09;;;;;;;39.97;27.15;;;;;;;5.66;100.00;92625.94;5052431;28;20049;-80
2023/12/07 01:35:36;;;;;;;41.45;28.13;;;;;;;5.56;100.00;92626.28;5058796;28;20053;-77
2023/12/07 01:38:04;;;;;;;42.53;26.25;;;;;;;5.44;100.00;92599.81;5047327;28;20461;-76
2023/12/07 01:40:31;;;;;;;37.97;25.70;;;;;;;5.52;100.00;92617.47;5046631;28;20049;-77
2023/12/07 01:42:57;;;;;;;40.05;26.63;;;;;;;5.40;100.00;92611.34;5053847;28;20146;-77
2023/12/07 01:45:24;;;;;;;39.15;27.63;;;;;;;5.50;100.00;92605.91;5048489;28;20044;-77
2023/12/07 01:47:56;;;;;;;43.05;28.10;;;;;;;5.62;100.00;92615.31;5059421;28;20684;-77
2023/12/07 01:50:23;;;;;;;44.72;29.83;;;;;;;5.69;100.00;92617.13;5047520;28;20049;-77
2023/12/07 01:52:55;;;;;;;43.20;28.48;;;;;;;5.60;100.00;92599.47;5047701;28;20549;-77
2023/12/07 01:55:24;;;;;;;45.85;30.30;;;;;;;5.59;100.00;92592.78;5057863;28;20059;-77
2023/12/07 01:57:51;;;;;;;42.58;29.05;;;;;;;5.84;100.00;92617.69;5041062;28;20388;-77
2023/12/07 02:00:18;;;;;;;45.47;30.55;;;;;;;5.62;100.00;92577.09;5038455;28;20144;-77
2023/12/07 02:02:46;;;;;;;51.47;33.70;;;;;;;5.92;100.00;92619.28;5039356;28;20581;-77
2023/12/07 02:05:15;;;;;;;47.47;31.98;;;;;;;5.85;100.00;92598.91;5043103;28;20051;-77
2023/12/07 02:07:42;;;;;;;49.75;30.63;;;;;;;5.99;100.00;92614.19;5050598;28;20055;-77
2023/12/07 02:10:10;;;;;;;55.63;35.03;;;;;;;6.00;100.00;92618.31;5046292;28;20055;-77
2023/12/07 02:12:37;;;;;;;52.20;33.83;;;;;;;6.01;100.00;92620.66;5047366;28;20513;-77
2023/12/07 02:15:05;;;;;;;54.08;33.65;;;;;;;6.04;100.00;92619.53;5054044;28;20052;-77
2023/12/07 02:17:39;;;;;;;53.72;32.58;;;;;;;6.09;100.00;92617.16;5050324;28;20081;-77
2023/12/07 02:20:13;;;;;;;48.55;31.90;;;;;;;6.09;100.00;92612.06;5054625;28;20170;-77
2023/12/07 02:22:47;;;;;;;49.78;32.60;;;;;;;6.09;100.00;92611.28;5061538;28;20413;-77
2023/12/07 02:25:16;;;;;;;48.65;31.60;;;;;;;6.05;100.00;92607.53;5063924;28;20075;-77
2023/12/07 02:27:46;;;;;;;51.17;31.70;;;;;;;6.00;100.00;92596.16;5060911;28;20049;-76
2023/12/07 02:30:13;;;;;;;51.00;31.17;;;;;;;6.15;100.00;92615.59;5051468;28;20056;-75
2023/12/07 02:32:42;;;;;;;48.60;29.52;;;;;;;6.04;100.00;92598.31;5059760;28;20512;-75
2023/12/07 02:35:11;;;;;;;44.30;29.65;;;;;;;6.17;100.00;92621.28;5058361;28;20423;-76
2023/12/07 02:37:43;;;;;;;43.67;29.38;;;;;;;6.18;100.00;92612.66;5054512;28;20052;-75
2023/12/07 02:40:11;;;;;;;37.03;26.52;;;;;;;6.17;100.00;92611.09;5049830;28;20059;-78
2023/12/07 02:42:40;;;;;;;40.42;27.77;;;;;;;6.15;100.00;92610.47;5056849;28;20044;-77
2023/12/07 02:45:10;;;;;;;44.67;28.27;;;;;;;6.16;100.00;92614.63;5049954;28;20049;-76
2023/12/07 02:47:37;;;;;;;41.30;27.48;;;;;;;6.14;100.00;92609.72;5059862;28;20058;-76
2023/12/07 02:50:06;;;;;;;43.58;28.83;;;;;;;6.14;100.00;92614.81;5054570;28;20059;-77
2023/12/07 02:52:33;;;;;;;44.20;28.95;;;;;;;6.15;100.00;92611.28;5049409;28;20063;-76
2023/12/07 02:55:00;;;;;;;47.30;30.70;;;;;;;6.11;100.00;92611.88;5051902;28;20053;-76
2023/12/07 02:57:27;;;;;;;49.08;31.77;;;;;;;6.19;100.00;92621.88;5062760;28;20100;-76
2023/12/07 02:59:54;;;;;;;59.08;36.47;;;;;;;6.18;100.00;92619.50;5049492;28;20048;-76
2023/12/07 03:02:22;;;;;;;55.30;34.33;;;;;;;6.12;100.00;92610.91;5049777;28;20067;-76
2023/12/07 03:04:49;;;;;;;56.80;34.03;;;;;;;6.16;100.00;92617.19;5050915;28;20120;-76
2023/12/07 03:07:16;;;;;;;60.42;35.33;;;;;;;6.17;100.00;92620.50;5060485;28;20127;-77
2023/12/07 03:09:43;;;;;;;68.05;38.05;;;;;;;6.14;100.00;92611.47;5066541;28;20059;-77
2023/12/07 03:12:10;;;;;;;65.97;37.42;;;;;;;6.19;100.00;92618.53;5060258;28;20119;-77
2023/12/07 03:14:37;;;;;;;63.70;34.90;;;;;;;6.19;100.00;92618.53;5053592;28;20059;-77
2023/12/07 03:17:04;;;;;;;58.47;34.33;;;;;;;6.21;100.00;92617.34;5051333;28;20045;-77
2023/12/07 03:19:32;;;;;;;71.82;37.55;;;;;;;6.19;100.00;92610.88;5050057;28;20084;-76
2023/12/07 03:21:59;;;;;;;69.57;36.13;;;;;;;6.19;100.00;92615.97;5054210;28;20041;-76
2023/12/07 03:24:26;;;;;;;56.70;31.50;;;;;;;6.03;100.00;92620.50;5049160;28;20075;-76
2023/12/07 03:26:53;;;;;;;53.83;30.45;;;;;;;5.92;100.00;92615.97;5051638;28;20059;-77
2023/12/07 03:29:20;;;;;;;51.85;29.23;;;;;;;5.68;100.00;92618.88;5054079;28;20418;-77
2023/12/07 03:31:47;;;;;;;46.53;28.02;;;;;;;5.63;100.00;92618.66;5051809;28;20045;-76
2023/12/07 03:34:15;;;;;;;50.22;27.77;;;;;;;5.59;100.00;92613.19;5062200;28;20051;-77
2023/12/07 03:36:47;;;;;;;51.85;30.92;;;;;;;5.59;100.00;92618.28;5048775;28;20059;-76
2023/12/07 03:39:14;;;;;;;53.13;31.63;;;;;;;5.57;100.00;92615.16;5060672;28;20041;-76
2023/12/07 03:41:41;;;;;;;55.55;30.65;;;;;;;5.45;100.00;92617.47;5054089;28;20214;-77
2023/12/07 03:44:08;;;;;;;53.28;31.23;;;;;;;5.21;100.00;92590.75;5048531;28;20045;-76
2023/12/07 03:46:35;;;;;;;52.47;32.55;;;;;;;5.34;100.00;92618.78;5049240;28;20163;-77
2023/12/07 03:49:02;;;;;;;56.17;33.13;;;;;;;5.27;100.00;92609.59;5052496;28;20049;-76
2023/12/07 03:51:29;;;;;;;58.45;35.63;;;;;;;5.28;100.00;92611.91;5048724;28;20161;-77
2023/12/07 03:53:58;;;;;;;74.22;44.97;;;;;;;5.30;100.00;92609.97;5050422;28;20045;-77
2023/12/07 03:56:25;;;;;;;67.13;39.00;;;;;;;5.21;100.00;92604.28;5050624;28;20071;-76
2023/12/07 03:58:52;;;;;;;70.05;43.40;;;;;;;5.08;100.00;92607.56;5048676;28;20128;-76
2023/12/07 04:01:23;;;;;;;63.30;38.97;;;;;;;4.98;100.00;92609.69;5050990;28;20131;-76
2023/12/07 04:03:50;;;;;;;55.53;33.13;;;;;;;4.77;100.00;92575.72;5051525;28;20056;-77
2023/12/07 04:06:17;;;;;;;61.05;34.28;;;;;;;4.89;100.00;92614.16;5047933;28;20055;-76
2023/12/07 04:08:44;;;;;;;61.28;35.00;;;;;;;4.55;100.00;92611.41;5048685;28;20507;-76
2023/12/07 04:11:12;;;;;;;59.15;34.00;;;;;;;4.49;100.00;92611.41;5054475;28;20048;-76
2023/12/07 04:13:40;;;;;;;61.53;34.33;;;;;;;4.49;100.00;92603.78;5048310;28;20051;-76
2023/12/07 04:16:07;;;;;;;57.92;33.50;;;;;;;4.39;100.00;92617.59;5049956;28;20084;-76
2023/12/07 04:18:34;;;;;;;56.28;32.17;;;;;;;4.39;100.00;92619.34;5051719;28;20059;-76
2023/12/07 04:21:06;;;;;;;54.05;32.75;;;;;;;4.36;100.00;92620.50;5052711;28;20051;-76
2023/12/07 04:23:33;;;;;;;51.33;32.17;;;;;;;4.26;100.00;92604.81;5047918;28;20057;-76
2023/12/07 04:26:00;;;;;;;51.85;31.58;;;;;;;4.29;100.00;92622.22;5049236;28;20056;-76
2023/12/07 04:28:28;;;;;;;51.85;30.20;;;;;;;4.26;100.00;92625.91;5049222;28;20052;-76
2023/12/07 04:30:55;;;;;;;46.38;28.63;;;;;;;4.48;100.00;92630.16;5055771;28;20048;-76
2023/12/07 04:33:22;;;;;;;46.85;29.05;;;;;;;4.61;100.00;92629.44;5051170;28;20484;-77
2023/12/07 04:35:49;;;;;;;70.68;46.28;;;;;;;4.67;100.00;92619.31;5052487;28;20498;-76
2023/12/07 04:38:16;;;;;;;64.18;41.55;;;;;;;4.84;100.00;92629.19;5053295;28;20047;-76
2023/12/07 04:40:43;;;;;;;42.10;27.73;;;;;;;4.51;100.00;92633.13;5047876;28;20163;-76
2023/12/07 04:43:10;;;;;;;38.13;26.98;;;;;;;4.54;100.00;92639.59;5049258;28;20052;-76
2023/12/07 04:45:39;;;;;;;35.00;23.33;;;;;;;4.39;100.00;92637.94;5054624;28;20080;-76
2023/12/07 04:48:06;;;;;;;40.42;25.00;;;;;;;4.24;100.00;92632.16;5053723;28;20513;-77
2023/12/07 04:50:33;;;;;;;39.97;26.00;;;;;;;4.36;100.00;92635.75;5055341;28;20087;-77
2023/12/07 04:53:00;;;;;;;42.35;26.85;;;;;;;4.55;100.00;92631.78;5053870;28;20059;-76
2023/12/07 04:55:27;;;;;;;37.50;25.23;;;;;;;4.45;100.00;92638.97;5049671;28;20124;-76
2023/12/07 04:57:54;;;;;;;53.03;36.15;;;;;;;4.60;100.00;92638.06;5047757;28;20048;-77
2023/12/07 05:00:21;;;;;;;46.65;29.50;;;;;;;4.41;100.00;92617.41;5047890;28;20067;-76
2023/12/07 05:02:49;;;;;;;45.20;29.67;;;;;;;4.37;100.00;92632.25;5050576;28;20047;-76
2023/12/07 05:05:16;;;;;;;40.13;28.40;;;;;;;4.33;100.00;92633.59;5054537;28;20053;-77
2023/12/07 05:07:43;;;;;;;44.72;29.42;;;;;;;4.36;100.00;92622.28;5050589;28;20071;-76
2023/12/07 05:10:10;;;;;;;50.20;36.10;;;;;;;4.66;100.00;92638.09;5057395;28;20135;-76
2023/12/07 05:12:37;;;;;;;43.33;29.52;;;;;;;4.82;100.00;92639.56;5061207;28;20053;-76
2023/12/07 05:15:06;;;;;;;42.00;28.20;;;;;;;4.88;100.00;92638.03;5048469;28;20052;-76
2023/12/07 05:17:33;;;;;;;39.03;26.15;;;;;;;5.03;100.00;92644.72;5052970;28;20159;-76
2023/12/07 05:20:02;;;;;;;43.83;28.08;;;;;;;5.00;100.00;92643.34;5060932;28;20063;-76
2023/12/07 05:22:29;;;;;;;52.95;39.83;;;;;;;4.99;100.00;92643.56;5063348;28;20465;-76
2023/12/07 05:24:56;;;;;;;44.83;32.00;;;;;;;5.16;100.00;92654.19;5056602;28;20059;-76
2023/12/07 05:27:23;;;;;;;41.80;29.42;;;;;;;5.26;100.00;92653.81;5050983;28;20049;-76
2023/12/07 05:29:50;;;;;;;45.10;25.50;;;;;;;5.09;100.00;92659.25;5056062;28;20058;-76
2023/12/07 05:32:17;;;;;;;40.13;27.67;;;;;;;5.04;100.00;92656.47;5053981;28;20083;-76
2023/12/07 05:34:44;;;;;;;38.92;25.35;;;;;;;5.03;100.00;92668.44;5050006;28;20063;-76
2023/12/07 05:37:12;;;;;;;37.28;24.15;;;;;;;4.80;100.00;92661.06;5051508;28;20053;-76
2023/12/07 05:39:39;;;;;;;34.95;23.42;;;;;;;4.88;100.00;92660.94;5052636;28;20056;-76
2023/12/07 05:42:07;;;;;;;37.85;24.88;;;;;;;4.76;100.00;92654.78;5051402;28;20054;-76
2023/12/07 05:44:34;;;;;;;33.85;22.05;;;;;;;4.66;100.00;92658.47;5059006;28;20053;-76
2023/12/07 05:47:01;;;;;;;36.67;25.25;;;;;;;4.85;100.00;92670.72;5049030;28;20048;-76
2023/12/07 05:49:28;;;;;;;31.92;21.05;;;;;;;4.92;100.00;92674.06;5052208;28;20053;-76
2023/12/07 05:51:55;;;;;;;31.23;19.65;;;;;;;4.91;100.00;92657.22;5062656;28;20063;-76
2023/12/07 05:54:23;;;;;;;24.48;17.30;;;;;;;5.13;100.00;92674.94;5053897;28;20067;-76
2023/12/07 05:56:50;;;;;;;26.23;17.77;;;;;;;4.90;100.00;92669.16;5051173;28;20045;-76
2023/12/07 05:59:17;;;;;;;27.48;20.40;;;;;;;5.06;100.00;92669.81;5050635;28;20059;-76
2023/12/07 06:01:44;;;;;;;30.05;20.52;;;;;;;5.26;100.00;92682.63;5050338;28;20079;-76
2023/12/07 06:04:12;;;;;;;34.60;22.65;;;;;;;5.30;100.00;92668.56;5050510;28;20491;-76
2023/12/07 06:06:39;;;;;;;33.28;24.30;;;;;;;5.35;100.00;92671.31;5052398;28;20082;-76
2023/12/07 06:09:07;;;;;;;29.90;21.35;;;;;;;5.50;100.00;92672.91;5050887;28;20045;-76
2023/12/07 06:11:36;;;;;;;61.53;40.90;;;;;;;5.62;100.00;92670.59;5051274;28;20063;-76
2023/12/07 06:14:06;;;;;;;30.48;24.23;;;;;;;5.68;100.00;92679.22;5050523;28;20044;-76
2023/12/07 06:16:32;;;;;;;37.65;30.20;;;;;;;5.56;100.00;92661.97;5050841;28;20052;-76
2023/12/07 06:18:59;;;;;;;47.80;32.95;;;;;;;5.73;100.00;92687.88;5051608;28;20052;-76
2023/12/07 06:21:29;;;;;;;40.15;30.27;;;;;;;5.75;100.00;92688.47;5059068;28;20049;-76
2023/12/07 06:23:56;;;;;;;38.97;31.10;;;;;;;5.83;100.00;92689.28;5059319;28;20064;-76
2023/12/07 06:26:24;;;;;;;36.35;29.27;;;;;;;5.87;100.00;92688.69;5052232;28;20041;-76
2023/12/07 06:28:52;;;;;;;29.77;22.95;;;;;;;5.82;100.00;92692.78;5050229;28;20049;-76
2023/12/07 06:31:21;;;;;;;34.20;26.25;;;;;;;5.87;100.00;92691.25;5056977;28;20060;-76
2023/12/07 06:33:48;;;;;;;38.17;26.70;;;;;;;5.84;100.00;92683.19;5051233;28;20052;-76
2023/12/07 06:36:20;;;;;;;32.28;21.20;;;;;;;5.74;100.00;92694.53;5055444;28;20053;-76
2023/12/07 06:38:47;;;;;;;22.40;14.65;;;;;;;5.45;100.00;92693.88;5054803;28;20542;-76
2023/12/07 06:41:15;;;;;;;17.52;12.70;;;;;;;5.21;100.00;92692.59;5051770;28;20045;-76
2023/12/07 06:43:44;;;;;;;20.80;14.98;;;;;;;5.00;100.00;92696.03;5052684;28;20094;-76
2023/12/07 06:46:16;;;;;;;18.58;12.32;;;;;;;4.69;100.00;92677.66;5052908;28;20178;-76
2023/12/07 06:48:43;;;;;;;17.90;12.82;;;;;;;4.39;100.00;92648.09;5052362;28;20052;-76
2023/12/07 06:51:10;;;;;;;21.35;14.40;;;;;;;4.77;100.00;92692.75;5053586;28;20395;-75
2023/12/07 06:53:37;;;;;;;18.73;13.85;;;;;;;4.44;100.00;92670.44;5065502;28;20610;-76
2023/12/07 06:56:04;;;;;;;18.60;14.70;;;;;;;4.75;100.00;92707.44;5053901;28;20051;-76
2023/12/07 06:58:31;;;;;;;23.73;16.65;;;;;;;4.94;100.00;92702.66;5067377;28;20132;-76
2023/12/07 07:00:58;;;;;;;20.65;15.65;;;;;;;4.94;100.00;92700.09;5060620;28;20052;-76
2023/12/07 07:03:27;;;;;;;17.60;12.90;;;;;;;5.17;100.00;92707.47;5052034;28;20052;-76
2023/12/07 07:05:54;;;;;;;22.83;15.35;;;;;;;5.28;100.00;92710.47;5051213;28;20076;-76
2023/12/07 07:08:21;;;;;;;19.98;15.65;;;;;;;5.41;100.00;92700.31;5049605;28;20146;-77
2023/12/07 07:10:48;;;;;;;26.88;19.83;;;;;;;5.25;100.00;92693.00;5049675;28;20401;-76
2023/12/07 07:13:16;;;;;;;26.48;17.33;;;;;;;5.37;100.00;92711.09;5053486;28;20055;-76
2023/12/07 07:15:44;;;;;;;31.75;20.92;;;;;;;5.47;100.00;92709.75;5050539;28;20045;-76
2023/12/07 07:18:11;;;;;;;34.42;22.52;;;;;;;5.41;100.00;92707.19;5058241;28;20076;-76
2023/12/07 07:20:39;;;;;;;29.50;20.63;;;;;;;5.44;100.00;92706.78;5055398;28;20048;-76
2023/12/07 07:23:07;;;;;;;28.55;19.65;;;;;;;5.45;100.00;92716.00;5050088;28;20055;-76
2023/12/07 07:25:35;;;;;;;26.25;17.67;;;;;;;5.45;100.00;92714.25;5048745;28;20063;-76
2023/12/07 07:28:02;;;;;;;24.55;17.83;;;;;;;5.42;100.00;92701.88;5050313;28;20837;-76
2023/12/07 07:30:29;;;;;;;28.13;16.35;;;;;;;5.40;100.00;92714.03;5048625;28;20434;-76
2023/12/07 07:32:56;;;;;;;25.73;17.05;;;;;;;5.27;100.00;92717.31;5048863;28;20049;-76
2023/12/07 07:35:23;;;;;;;21.10;15.52;;;;;;;5.28;100.00;92707.91;5048687;28;20430;-76
2023/12/07 07:37:51;;;;;;;18.60;12.60;;;;;;;5.21;100.00;92723.97;5055045;28;20081;-76
2023/12/07 07:40:20;;;;;;;15.70;11.85;;;;;;;5.28;100.00;92734.16;5050988;28;20503;-76
2023/12/07 07:42:47;;;;;;;14.23;10.70;;;;;;;5.02;100.00;92737.34;5054570;28;20053;-76
2023/12/07 07:45:14;;;;;;;15.15;10.07;;;;;;;4.99;100.00;92740.28;5050630;28;20079;-76
2023/12/07 07:47:41;;;;;;;12.25;9.02;;;;;;;4.95;100.00;92740.66;5049139;28;20402;-76
2023/12/07 07:50:10;;;;;;;13.30;9.95;;;;;;;4.88;100.00;92741.56;5051612;28;20550;-76
2023/12/07 07:52:37;;;;;;;15.98;11.30;;;;;;;4.94;100.00;92749.25;5051141;28;20473;-76
2023/12/07 07:55:07;;;;;;;14.50;10.13;;;;;;;4.95;100.00;92753.38;5051967;28;20079;-76
2023/12/07 07:57:34;;;;;;;13.60;10.02;;;;;;;4.89;100.00;92751.56;5051295;28;20515;-76
2023/12/07 08:00:00;;;;;;;16.73;10.35;;;;;;;4.88;100.00;92751.75;5061556;28;20060;-76
2023/12/07 08:02:28;;;;;;;15.13;11.13;;;;;;;5.11;100.00;92751.50;5059213;28;20049;-76
2023/12/07 08:04:55;;;;;;;14.63;10.75;;;;;;;4.92;100.00;92752.97;5052792;28;20080;-76
2023/12/07 08:07:22;;;;;;;12.90;10.15;;;;;;;4.89;100.00;92760.94;5049167;28;20049;-76
2023/12/07 08:09:48;;;;;;;14.25;10.55;;;;;;;4.81;100.00;92736.44;5048048;28;20048;-76
2023/12/07 08:12:17;;;;;;;13.93;10.15;;;;;;;4.74;100.00;92756.75;5055294;28;20054;-76
2023/12/07 08:14:45;;;;;;;14.32;10.55;;;;;;;4.92;100.00;92766.47;5048836;28;20055;-76
2023/12/07 08:17:12;;;;;;;11.75;9.55;;;;;;;5.11;100.00;92769.34;5052322;28;20048;-76
2023/12/07 08:19:39;;;;;;;12.35;10.10;;;;;;;4.69;100.00;92756.53;5048535;28;20052;-76
2023/12/07 08:22:06;;;;;;;13.25;10.55;;;;;;;4.84;100.00;92769.16;5051715;28;20053;-76
2023/12/07 08:24:33;;;;;;;14.68;10.88;;;;;;;4.77;100.00;92748.75;5052371;28;20407;-76
2023/12/07 08:27:00;;;;;;;16.02;12.38;;;;;;;4.76;100.00;92757.34;5049221;28;20052;-76
2023/12/07 08:29:29;;;;;;;17.30;12.93;;;;;;;4.97;100.00;92780.38;5055313;28;20147;-75
2023/12/07 08:31:56;;;;;;;13.35;10.15;;;;;;;5.03;100.00;92777.91;5048935;28;20059;-76
2023/12/07 08:34:24;;;;;;;13.90;10.57;;;;;;;4.94;100.00;92773.91;5050107;28;20052;-76
2023/12/07 08:36:51;;;;;;;16.23;13.00;;;;;;;4.97;100.00;92771.00;5049814;28;20051;-76
2023/12/07 08:39:18;;;;;;;14.38;11.77;;;;;;;5.08;100.00;92755.22;5049668;28;20084;-76
2023/12/07 08:41:45;;;;;;;17.60;12.05;;;;;;;5.41;100.00;92778.50;5050917;28;20067;-76
2023/12/07 08:44:12;;;;;;;14.82;10.60;;;;;;;5.41;100.00;92786.91;5049240;28;20044;-75
2023/12/07 08:46:43;;;;;;;13.02;10.60;;;;;;;5.55;100.00;92775.03;5054535;28;20045;-76
2023/12/07 08:49:10;;;;;;;14.25;10.73;;;;;;;5.65;100.00;92784.88;5053598;28;20068;-76
2023/12/07 08:51:37;;;;;;;14.52;11.20;;;;;;;5.64;100.00;92787.63;5053959;28;20060;-76
2023/12/07 08:54:05;;;;;;;17.80;12.93;;;;;;;5.76;100.00;92788.66;5048255;28;20048;-75
2023/12/07 08:56:32;;;;;;;16.10;11.70;;;;;;;5.71;100.00;92793.53;5059152;28;20065;-76
2023/12/07 08:58:59;;;;;;;21.30;14.90;;;;;;;5.52;100.00;92790.72;5050776;28;20049;-77
2023/12/07 09:01:27;;;;;;;17.67;13.25;;;;;;;5.60;100.00;92784.69;5047776;28;20045;-76
2023/12/07 09:03:55;;;;;;;18.42;13.18;;;;;;;5.61;100.00;92786.25;5050670;28;20044;-76
2023/12/07 09:06:22;;;;;;;16.15;12.27;;;;;;;5.56;100.00;92775.84;5053186;28;20527;-76
2023/12/07 09:08:49;;;;;;;10.38;8.00;;;;;;;5.45;100.00;92797.50;5050024;28;20059;-76
2023/12/07 09:11:16;;;;;;;19.73;14.35;;;;;;;5.37;100.00;92790.03;5054238;28;20068;-77
2023/12/07 09:13:43;;;;;;;17.95;14.40;;;;;;;5.38;100.00;92782.22;5047894;28;20055;-77
2023/12/07 09:16:10;;;;;;;8.68;7.07;;;;;;;5.17;100.00;92781.31;5050728;28;20059;-76
2023/12/07 09:18:37;;;;;;;10.85;9.15;;;;;;;5.21;100.00;92797.81;5052934;28;20049;-76
2023/12/07 09:21:06;;;;;;;10.48;9.38;;;;;;;5.32;100.00;92793.16;5048481;28;20056;-76
2023/12/07 09:23:33;;;;;;;7.82;6.47;;;;;;;5.03;100.00;92798.25;5051379;28;20485;-77
2023/12/07 09:25:59;;;;;;;6.32;5.50;;;;;;;4.75;100.00;92788.06;5056485;28;20059;-76
2023/12/07 09:28:26;;;;;;;9.27;6.78;;;;;;;4.62;100.00;92798.91;5056841;28;20507;-76
2023/12/07 09:30:54;;;;;;;8.13;6.18;;;;;;;4.54;100.00;92794.75;5057672;28;20053;-77
2023/12/07 09:33:21;;;;;;;15.73;13.00;;;;;;;4.72;100.00;92791.00;5054583;28;20052;-77
2023/12/07 09:35:49;;;;;;;11.07;9.63;;;;;;;4.77;100.00;92788.69;5056397;28;20438;-77
2023/12/07 09:38:17;;;;;;;6.93;5.80;;;;;;;4.75;100.00;92788.84;5052697;28;20044;-76
2023/12/07 09:40:44;;;;;;;9.57;8.68;;;;;;;4.83;100.00;92793.03;5052185;28;20053;-77
2023/12/07 09:43:12;;;;;;;9.75;8.75;;;;;;;5.03;100.00;92792.38;5052575;28;20071;-77
2023/12/07 09:45:39;;;;;;;10.68;9.68;;;;;;;5.00;100.00;92780.03;5052765;28;20122;-77
2023/12/07 09:48:07;;;;;;;8.15;7.35;;;;;;;5.12;100.00;92793.00;5052414;28;20052;-77
2023/12/07 09:50:34;;;;;;;10.85;8.63;;;;;;;5.06;100.00;92797.09;5052552;28;20057;-77
2023/12/07 09:53:02;;;;;;;8.75;7.85;;;;;;;4.98;100.00;92792.13;5054342;28;20270;-77
2023/12/07 09:55:30;;;;;;;9.60;8.70;;;;;;;4.81;100.00;92793.22;5058993;28;20401;-77
2023/12/07 09:57:58;;;;;;;5.70;4.88;;;;;;;4.34;100.00;92746.25;5058629;28;20388;-77
2023/12/07 10:00:25;;;;;;;4.47;3.75;;;;;;;4.68;100.00;92790.56;5055543;28;20055;-77
2023/12/07 10:02:52;;;;;;;4.80;4.20;;;;;;;4.53;100.00;92783.00;5050552;28;20056;-77
2023/12/07 10:05:19;;;;;;;5.88;4.50;;;;;;;4.51;100.00;92806.09;5053397;28;20078;-77
2023/12/07 10:07:48;;;;;;;6.57;3.78;;;;;;;4.28;100.00;92798.63;5050137;28;20044;-77
2023/12/07 10:10:16;;;;;;;5.43;4.20;;;;;;;4.38;100.00;92793.22;5059091;28;20063;-77
2023/12/07 10:12:49;;;;;;;5.90;4.13;;;;;;;4.38;100.00;92795.78;5051037;28;20064;-77
2023/12/07 10:15:17;;;;;;;5.95;3.42;;;;;;;4.03;100.00;92801.50;5052031;28;20083;-77
2023/12/07 10:17:48;;;;;;;11.18;6.68;;;;;;;3.57;100.00;92787.31;5049978;28;20055;-77
2023/12/07 10:20:17;;;;;;;7.95;5.45;;;;;;;3.25;100.00;92766.41;5050205;28;20048;-77
2023/12/07 10:22:45;;;;;;;6.03;4.13;;;;;;;3.01;100.00;92775.84;5062268;28;20049;-77
2023/12/07 10:25:13;;;;;;;6.65;4.57;;;;;;;2.99;100.00;92788.72;5065433;28;20047;-78
2023/12/07 10:27:42;;;;;;;4.78;3.63;;;;;;;3.07;100.00;92787.84;5049943;28;20140;-77
2023/12/07 10:30:14;;;;;;;6.18;4.25;;;;;;;3.14;100.00;92787.94;5050451;28;20481;-77
2023/12/07 10:32:41;;;;;;;5.72;4.22;;;;;;;2.77;100.00;92782.72;5051749;28;20414;-77
2023/12/07 10:35:09;;;;;;;4.75;3.25;;;;;;;2.70;100.00;92775.03;5064287;28;20049;-77
2023/12/07 10:37:36;;;;;;;8.50;5.20;;;;;;;3.01;100.00;92794.38;5067803;28;20045;-77
2023/12/07 10:40:05;;;;;;;16.42;12.48;;;;;;;3.31;100.00;92796.16;5057089;28;20470;-77
2023/12/07 10:42:35;;;;;;;7.68;6.70;;;;;;;3.28;100.00;92776.22;5067604;28;20044;-77
2023/12/07 10:45:06;;;;;;;5.82;4.55;;;;;;;3.54;100.00;92791.00;5049461;28;20114;-77
2023/12/07 10:47:37;;;;;;;5.68;4.25;;;;;;;3.57;100.00;92794.94;5050061;28;20075;-77
2023/12/07 10:50:10;;;;;;;5.25;4.45;;;;;;;3.69;100.00;92793.50;5053737;28;20041;-77
2023/12/07 10:52:38;;;;;;;4.63;3.55;;;;;;;3.44;100.00;92793.81;5049737;28;20594;-77
2023/12/07 10:55:08;;;;;;;4.35;3.22;;;;;;;3.50;100.00;92789.75;5049825;28;20406;-78
2023/12/07 10:57:38;;;;;;;4.97;3.95;;;;;;;3.52;100.00;92799.75;5051872;28;20041;-77
2023/12/07 11:00:08;;;;;;;5.28;3.70;;;;;;;3.32;100.00;92803.59;5049375;28;20051;-77
2023/12/07 11:02:39;;;;;;;4.53;3.03;;;;;;;3.10;100.00;92774.78;5053776;28;20183;-77
2023/12/07 11:05:07;;;;;;;5.10;3.58;;;;;;;3.06;100.00;92801.50;5057154;28;20131;-77
2023/12/07 11:07:43;;;;;;;5.00;3.65;;;;;;;2.81;100.00;92794.09;5050954;28;20059;-77
2023/12/07 11:10:19;;;;;;;4.93;3.88;;;;;;;3.00;100.00;92802.19;5063495;28;20048;-77
2023/12/07 11:12:48;;;;;;;;;;;;;;;3.21;100.00;92794.66;5067441;28;20925;-77
2023/12/07 11:15:16;;;;;;;4.18;3.47;;;;;;;2.89;100.00;92795.78;5067802;28;19972;-76
2023/12/07 11:17:55;;;;;;;3.58;2.67;;;;;;;3.04;100.00;92794.06;5050916;28;20048;-77
2023/12/07 11:20:22;;;;;;;4.28;3.42;;;;;;;3.09;100.00;92792.75;5049065;28;20044;-77
2023/12/07 11:22:51;;;;;;;4.22;3.28;;;;;;;3.04;100.00;92785.63;5050384;28;20164;-77